Time;durP1;ratioP1;P1;durP2;ratioP2;P2;SDS_P1;SDS_P2;PMS_P1;PMS_P2;Temp;Humidity;BMP_temperature;BMP_pressure;BME280_temperature;BME280_humidity;BME280_pressure;Samples;Min_cycle;Max_cycle;Signal;HPM_P1;HPM_P2
2021/12/30 00:00:08;;;;;;;15.48;9.13;;;22.30;80.60;;;;;;1799003;78;21621;-77
2021/12/30 00:02:40;;;;;;;16.45;10.43;;;22.30;80.50;;;;;;1765976;80;21164;-79
2021/12/30 00:05:12;;;;;;;18.50;10.48;;;22.30;80.50;;;;;;1796136;78;21824;-78
2021/12/30 00:07:44;;;;;;;18.12;11.10;;;22.30;80.40;;;;;;1813221;77;21096;-78
2021/12/30 00:10:15;;;;;;;15.32;11.48;;;22.30;80.40;;;;;;1802377;79;21626;-78
2021/12/30 00:12:47;;;;;;;21.02;12.23;;;22.30;80.10;;;;;;1777419;80;21101;-78
2021/12/30 00:15:19;;;;;;;17.82;10.55;;;22.30;80.50;;;;;;1800530;79;21767;-78
2021/12/30 00:17:50;;;;;;;13.15;8.90;;;22.30;80.40;;;;;;1797247;79;21171;-79
2021/12/30 00:20:21;;;;;;;15.20;8.88;;;22.30;80.50;;;;;;1784326;77;21167;-77
2021/12/30 00:22:52;;;;;;;12.25;7.12;;;22.40;80.40;;;;;;1795774;79;21623;-77
2021/12/30 00:25:23;;;;;;;11.40;6.35;;;22.40;79.70;;;;;;1801275;79;21641;-78
2021/12/30 00:27:54;;;;;;;11.63;6.53;;;22.50;79.30;;;;;;1798573;79;21232;-78
2021/12/30 00:30:25;;;;;;;10.45;6.25;;;22.50;79.20;;;;;;1763067;81;21179;-78
2021/12/30 00:32:56;;;;;;;16.15;7.03;;;22.50;79.30;;;;;;1751872;80;21232;-72
2021/12/30 00:35:27;;;;;;;11.08;5.50;;;22.60;79.30;;;;;;1766495;80;21589;-73
2021/12/30 00:37:59;;;;;;;12.65;6.25;;;22.60;78.60;;;;;;1791999;78;21217;-72
2021/12/30 00:40:30;;;;;;;9.10;5.53;;;22.70;78.40;;;;;;1728206;81;22246;-73
2021/12/30 00:43:01;;;;;;;10.78;6.22;;;22.70;78.30;;;;;;1757098;79;21191;-73
2021/12/30 00:45:34;;;;;;;9.63;5.70;;;22.80;78.20;;;;;;1791788;79;22002;-73
2021/12/30 00:48:06;;;;;;;13.05;5.72;;;22.80;77.80;;;;;;1786895;78;21085;-72
2021/12/30 00:50:40;;;;;;;12.85;6.53;;;22.90;77.90;;;;;;1821890;78;21126;-73
2021/12/30 00:53:11;;;;;;;10.72;6.47;;;22.90;77.50;;;;;;1781919;80;21221;-73
2021/12/30 00:55:42;;;;;;;11.22;5.58;;;23.00;77.60;;;;;;1748316;81;21113;-72
2021/12/30 00:58:14;;;;;;;8.53;5.42;;;23.00;77.00;;;;;;1763975;81;21212;-73
2021/12/30 01:00:46;;;;;;;9.38;5.85;;;23.10;76.70;;;;;;1765187;79;21098;-73
2021/12/30 01:03:18;;;;;;;10.95;6.72;;;23.10;77.10;;;;;;1791870;78;21187;-73
2021/12/30 01:05:49;;;;;;;14.05;6.35;;;23.10;77.00;;;;;;1795908;78;21594;-72
2021/12/30 01:08:20;;;;;;;10.23;6.33;;;23.10;77.00;;;;;;1773419;79;21206;-73
2021/12/30 01:10:53;;;;;;;8.53;5.25;;;23.10;77.00;;;;;;1844827;75;22333;-73
2021/12/30 01:13:27;;;;;;;12.47;6.10;;;23.20;76.70;;;;;;1850790;76;21194;-72
2021/12/30 01:16:01;;;;;;;13.32;5.17;;;23.20;76.90;;;;;;1832461;76;21289;-72
2021/12/30 01:21:01;;;;;;;9.75;5.80;;;23.40;76.00;;;;;;1836638;78;21305;-72
2021/12/30 01:23:32;;;;;;;13.45;5.70;;;23.40;75.90;;;;;;1845393;76;21135;-72
2021/12/30 01:26:04;;;;;;;11.68;5.20;;;23.40;75.80;;;;;;1844043;76;21666;-72
2021/12/30 01:28:34;;;;;;;8.55;5.78;;;23.40;76.20;;;;;;1827545;76;21154;-72
2021/12/30 01:31:07;;;;;;;7.87;5.33;;;23.40;75.50;;;;;;1831651;77;21157;-72
2021/12/30 01:33:39;;;;;;;10.10;5.05;;;23.50;75.50;;;;;;1840065;77;21241;-72
2021/12/30 01:36:09;;;;;;;10.68;6.87;;;23.50;75.30;;;;;;1847175;76;21219;-71
2021/12/30 01:38:40;;;;;;;43.80;10.78;;;23.50;75.00;;;;;;1836552;76;21223;-72
2021/12/30 01:41:12;;;;;;;16.40;8.88;;;23.60;74.80;;;;;;1840862;75;21241;-72
2021/12/30 01:43:43;;;;;;;12.43;7.03;;;23.60;74.50;;;;;;1900938;75;21072;-72
2021/12/30 01:46:15;;;;;;;10.58;6.05;;;23.60;74.60;;;;;;1896037;74;21669;-71
2021/12/30 01:48:46;;;;;;;9.93;5.92;;;23.60;74.40;;;;;;1901192;75;22203;-71
2021/12/30 01:51:16;;;;;;;12.68;6.33;;;23.70;74.30;;;;;;1889618;75;21116;-71
2021/12/30 01:53:47;;;;;;;14.18;6.30;;;23.70;74.30;;;;;;1857781;75;21151;-71
2021/12/30 01:56:18;;;;;;;11.40;5.45;;;23.70;74.50;;;;;;1894816;75;21122;-71
2021/12/30 01:58:49;;;;;;;6.78;4.72;;;23.70;74.40;;;;;;1885818;75;21127;-71
2021/12/30 02:01:19;;;;;;;8.83;5.70;;;23.80;73.90;;;;;;1888372;75;21135;-71
2021/12/30 02:03:50;;;;;;;11.15;4.92;;;23.90;73.70;;;;;;1894918;74;21229;-71
2021/12/30 02:06:23;;;;;;;7.03;4.50;;;23.90;73.40;;;;;;1900181;74;21712;-71
2021/12/30 02:08:54;;;;;;;15.72;5.45;;;23.90;74.40;;;;;;1897226;74;21076;-72
2021/12/30 02:11:25;;;;;;;9.83;4.70;;;24.00;73.40;;;;;;1904009;75;21155;-72
2021/12/30 02:13:56;;;;;;;7.75;4.00;;;24.00;73.20;;;;;;1903655;75;21166;-72
2021/12/30 02:16:27;;;;;;;8.58;3.72;;;24.00;72.80;;;;;;1891285;75;21253;-72
2021/12/30 02:18:58;;;;;;;6.37;3.58;;;24.10;72.60;;;;;;1890899;74;21120;-72
2021/12/30 02:21:30;;;;;;;6.90;3.40;;;24.10;71.80;;;;;;1903701;74;21157;-73
2021/12/30 02:24:00;;;;;;;26.12;4.87;;;24.10;71.50;;;;;;1905126;74;21146;-73
2021/12/30 02:26:31;;;;;;;10.05;3.58;;;24.20;71.80;;;;;;1896770;75;21136;-72
2021/12/30 02:29:03;;;;;;;6.75;3.10;;;24.20;71.70;;;;;;1898655;74;21116;-73
2021/12/30 02:31:34;;;;;;;7.87;3.80;;;24.20;71.80;;;;;;1906324;74;21174;-71
2021/12/30 02:34:05;;;;;;;8.40;3.77;;;24.30;71.50;;;;;;1887383;74;21118;-73
2021/12/30 02:36:39;;;;;;;8.13;3.92;;;24.40;71.30;;;;;;1856584;75;21080;-74
2021/12/30 02:39:13;;;;;;;8.53;3.83;;;24.40;71.10;;;;;;1895065;75;21116;-72
2021/12/30 02:41:43;;;;;;;5.83;3.70;;;24.40;71.10;;;;;;1906568;74;21195;-73
2021/12/30 02:44:14;;;;;;;8.53;4.15;;;24.40;71.30;;;;;;1889220;74;21107;-74
2021/12/30 02:46:46;;;;;;;7.35;4.28;;;24.50;71.10;;;;;;1889122;74;21056;-73
2021/12/30 02:49:19;;;;;;;8.33;3.30;;;24.50;70.60;;;;;;1860246;75;22365;-73
2021/12/30 02:51:50;;;;;;;6.95;3.80;;;24.60;70.10;;;;;;1885745;74;21186;-74
2021/12/30 02:54:21;;;;;;;11.28;4.40;;;24.60;70.00;;;;;;1897077;74;21257;-74
2021/12/30 02:56:52;;;;;;;14.70;4.45;;;24.60;70.10;;;;;;1888382;74;21148;-71
2021/12/30 02:59:23;;;;;;;7.20;3.58;;;24.70;70.30;;;;;;1876401;74;21655;-74
2021/12/30 03:01:55;;;;;;;14.98;4.72;;;24.70;69.90;;;;;;1888786;75;21179;-72
2021/12/30 03:04:26;;;;;;;9.60;4.05;;;24.80;69.70;;;;;;1892825;74;21189;-72
2021/12/30 03:06:59;;;;;;;7.25;3.83;;;24.80;69.60;;;;;;1882641;74;21170;-73
2021/12/30 03:09:29;;;;;;;8.35;4.05;;;24.90;69.40;;;;;;1893752;75;21073;-73
2021/12/30 03:12:00;;;;;;;15.88;4.35;;;24.90;69.20;;;;;;1904800;73;21206;-71
2021/12/30 03:14:31;;;;;;;6.65;3.70;;;25.00;69.10;;;;;;1905097;74;21189;-72
2021/12/30 03:17:02;;;;;;;7.87;3.60;;;24.90;69.20;;;;;;1891556;74;21088;-71
2021/12/30 03:19:33;;;;;;;8.08;4.30;;;25.00;69.10;;;;;;1886800;75;21115;-72
2021/12/30 03:22:04;;;;;;;9.25;4.67;;;25.10;69.00;;;;;;1860444;76;21936;-73
2021/12/30 03:24:35;;;;;;;7.33;3.50;;;25.10;69.00;;;;;;1890816;74;21060;-74
2021/12/30 03:27:06;;;;;;;7.58;4.45;;;25.20;68.70;;;;;;1882968;74;21166;-73
2021/12/30 03:29:37;;;;;;;7.58;4.33;;;25.30;68.10;;;;;;1856226;75;21616;-73
2021/12/30 03:32:08;;;;;;;12.45;3.83;;;25.40;67.90;;;;;;1901910;74;21110;-72
2021/12/30 03:34:38;;;;;;;5.72;3.70;;;25.50;67.40;;;;;;1900362;74;21233;-73
2021/12/30 03:37:09;;;;;;;5.67;3.45;;;25.50;67.00;;;;;;1893654;74;21726;-73
2021/12/30 03:39:40;;;;;;;6.67;3.58;;;25.60;66.70;;;;;;1892211;74;21159;-72
2021/12/30 03:42:12;;;;;;;5.85;3.83;;;25.70;66.80;;;;;;1893152;75;21179;-72
2021/12/30 03:44:43;;;;;;;5.33;3.62;;;25.70;67.10;;;;;;1881827;75;21567;-73
2021/12/30 03:47:17;;;;;;;12.20;4.10;;;25.80;66.90;;;;;;1882077;75;21147;-73
2021/12/30 03:49:46;;;;;;;6.12;3.65;;;25.90;66.10;;;;;;1881699;74;21159;-74
2021/12/30 03:52:30;;;;;;;5.92;3.17;;;26.10;66.10;;;;;;1886244;74;21827;-72
2021/12/30 03:54:50;;;;;;;5.12;2.60;;;26.20;65.30;;;;;;1892991;74;21080;-75
2021/12/30 03:57:21;;;;;;;5.20;2.65;;;26.30;64.90;;;;;;1901357;74;21205;-72
2021/12/30 03:59:52;;;;;;;6.03;2.17;;;26.40;64.60;;;;;;1888774;74;21151;-74
2021/12/30 04:02:23;;;;;;;3.80;2.37;;;26.50;64.60;;;;;;1886248;75;21158;-75
2021/12/30 04:04:54;;;;;;;4.65;2.17;;;26.50;63.70;;;;;;1890377;74;21740;-73
2021/12/30 04:07:24;;;;;;;11.08;2.52;;;26.60;63.70;;;;;;1826763;77;21137;-71
2021/12/30 04:09:55;;;;;;;8.58;2.90;;;26.70;63.50;;;;;;1900928;74;21056;-73
2021/12/30 04:12:26;;;;;;;5.47;2.80;;;26.70;63.20;;;;;;1879080;74;21304;-71
2021/12/30 04:14:57;;;;;;;3.25;2.20;;;26.90;63.70;;;;;;1880318;74;21187;-73
2021/12/30 04:17:27;;;;;;;5.85;2.95;;;26.90;62.50;;;;;;1875278;74;21245;-72
2021/12/30 04:19:58;;;;;;;4.20;2.50;;;27.00;62.60;;;;;;1873151;75;21201;-72
2021/12/30 04:22:29;;;;;;;3.90;2.52;;;27.10;62.30;;;;;;1871644;74;21655;-72
2021/12/30 04:25:00;;;;;;;4.65;2.40;;;27.10;61.90;;;;;;1839118;76;21143;-72
2021/12/30 04:27:31;;;;;;;5.83;2.70;;;27.10;62.30;;;;;;1835588;76;21569;-72
2021/12/30 04:30:03;;;;;;;4.10;2.15;;;27.30;62.00;;;;;;1838601;76;21195;-71
2021/12/30 04:32:34;;;;;;;4.75;2.60;;;27.40;61.30;;;;;;1839307;76;21945;-72
2021/12/30 04:35:07;;;;;;;5.03;2.80;;;27.40;60.80;;;;;;1836945;76;21136;-71
2021/12/30 04:37:38;;;;;;;6.00;2.50;;;27.50;60.40;;;;;;1893937;74;21102;-70
2021/12/30 04:40:10;;;;;;;5.62;2.83;;;27.60;60.40;;;;;;1882698;75;21148;-72
2021/12/30 04:42:42;;;;;;;3.50;2.15;;;27.60;60.20;;;;;;1884796;74;21132;-71
2021/12/30 04:45:14;;;;;;;10.40;1.98;;;27.70;60.60;;;;;;1902894;75;21127;-72
2021/12/30 04:47:45;;;;;;;6.60;2.12;;;27.80;59.90;;;;;;1900222;74;21136;-72
2021/12/30 04:50:16;;;;;;;5.35;1.77;;;27.90;59.40;;;;;;1883642;74;21650;-72
2021/12/30 04:52:47;;;;;;;7.60;1.80;;;28.00;59.40;;;;;;1885381;74;21061;-72
2021/12/30 04:55:17;;;;;;;3.47;2.08;;;28.10;58.70;;;;;;1894162;75;21206;-72
2021/12/30 04:57:48;;;;;;;6.47;2.22;;;28.10;59.00;;;;;;1896241;74;21480;-72
2021/12/30 05:00:19;;;;;;;3.65;1.82;;;28.20;58.90;;;;;;1873280;75;21156;-72
2021/12/30 05:05:22;;;;;;;5.85;2.05;;;28.50;58.50;;;;;;1883203;75;21148;-71
2021/12/30 05:07:53;;;;;;;4.67;2.17;;;28.50;58.10;;;;;;1883194;75;21123;-71
2021/12/30 05:10:25;;;;;;;3.75;1.95;;;28.60;57.60;;;;;;1889152;74;21120;-71
2021/12/30 05:12:55;;;;;;;4.70;2.37;;;28.60;57.50;;;;;;1910271;74;21071;-71
2021/12/30 05:15:27;;;;;;;3.55;2.08;;;28.70;58.30;;;;;;1913446;73;21135;-70
2021/12/30 05:17:57;;;;;;;8.25;1.90;;;28.70;57.50;;;;;;1905602;74;21118;-72
2021/12/30 05:20:29;;;;;;;4.00;1.80;;;28.70;57.20;;;;;;1915400;74;21822;-72
2021/12/30 05:23:00;;;;;;;3.00;1.77;;;28.90;57.40;;;;;;1907247;74;21609;-70
2021/12/30 05:25:31;;;;;;;5.87;1.70;;;28.90;57.00;;;;;;1914843;74;21205;-70
2021/12/30 05:28:02;;;;;;;5.03;1.82;;;28.90;57.00;;;;;;1913957;74;21154;-70
2021/12/30 05:30:33;;;;;;;6.60;1.40;;;28.90;57.30;;;;;;1916814;74;21625;-71
2021/12/30 05:33:05;;;;;;;10.13;2.42;;;28.90;57.20;;;;;;1922335;74;21143;-71
2021/12/30 05:35:36;;;;;;;4.80;2.20;;;29.00;57.10;;;;;;1890634;75;21715;-72
2021/12/30 05:38:07;;;;;;;5.25;2.20;;;29.10;56.20;;;;;;1891225;75;21139;-70
2021/12/30 05:40:38;;;;;;;4.28;2.27;;;29.20;56.00;;;;;;1891394;75;21726;-70
2021/12/30 05:43:09;;;;;;;3.25;2.10;;;29.20;55.40;;;;;;1894740;75;21166;-70
2021/12/30 05:45:41;;;;;;;4.92;2.60;;;29.30;56.10;;;;;;1890856;75;21333;-71
2021/12/30 05:48:12;;;;;;;3.15;1.95;;;29.30;56.00;;;;;;1889558;75;21216;-71
2021/12/30 05:50:43;;;;;;;4.12;2.60;;;29.40;55.60;;;;;;1887579;75;21217;-71
2021/12/30 05:53:15;;;;;;;4.05;2.17;;;29.40;55.50;;;;;;1892331;75;21229;-70
2021/12/30 05:55:46;;;;;;;5.37;1.98;;;29.40;55.60;;;;;;1885821;75;21555;-72
2021/12/30 05:58:16;;;;;;;6.20;2.08;;;29.50;55.70;;;;;;1883341;75;21130;-71
2021/12/30 06:00:48;;;;;;;4.58;2.10;;;29.60;55.30;;;;;;1899392;75;21165;-72
2021/12/30 06:03:20;;;;;;;5.17;1.85;;;29.70;55.50;;;;;;1889160;75;21123;-72
2021/12/30 06:05:51;;;;;;;4.12;2.08;;;29.70;55.50;;;;;;1889259;75;21530;-72
2021/12/30 06:08:23;;;;;;;7.30;2.60;;;29.80;55.00;;;;;;1882044;75;21656;-72
2021/12/30 06:10:53;;;;;;;9.08;2.52;;;29.80;55.30;;;;;;1886115;75;21108;-71
2021/12/30 06:13:24;;;;;;;12.07;2.25;;;29.80;55.30;;;;;;1888862;75;21166;-72
2021/12/30 06:15:55;;;;;;;4.42;2.20;;;29.80;55.10;;;;;;1886174;75;21095;-73
2021/12/30 06:18:25;;;;;;;2.92;1.70;;;29.80;54.90;;;;;;1888255;75;21191;-72
2021/12/30 06:20:56;;;;;;;2.62;1.60;;;29.90;54.70;;;;;;1892350;75;21103;-73
2021/12/30 06:23:27;;;;;;;2.77;1.75;;;29.90;54.60;;;;;;1880069;75;21139;-72
2021/12/30 06:25:57;;;;;;;6.30;3.87;;;29.90;54.50;;;;;;1882039;75;21149;-72
2021/12/30 06:28:28;;;;;;;8.65;3.72;;;29.90;54.40;;;;;;1888896;75;21139;-72
2021/12/30 06:30:59;;;;;;;6.25;3.65;;;29.80;54.40;;;;;;1887074;75;21142;-72
2021/12/30 06:33:29;;;;;;;4.70;2.90;;;29.80;54.80;;;;;;1880743;75;21131;-73
2021/12/30 06:36:00;;;;;;;3.92;2.40;;;29.80;54.90;;;;;;1892631;75;21177;-73
2021/12/30 06:38:31;;;;;;;4.92;2.17;;;29.80;55.00;;;;;;1889015;75;21091;-73
2021/12/30 06:41:02;;;;;;;3.67;2.15;;;29.80;54.90;;;;;;1883259;75;21232;-73
2021/12/30 06:43:33;;;;;;;3.27;1.70;;;29.90;54.80;;;;;;1896539;75;21149;-73
2021/12/30 06:46:05;;;;;;;4.95;1.65;;;29.90;54.80;;;;;;1887698;75;21713;-72
2021/12/30 06:48:36;;;;;;;3.35;2.22;;;29.90;54.40;;;;;;1891410;75;21043;-71
2021/12/30 06:51:07;;;;;;;5.22;2.10;;;30.00;54.30;;;;;;1901077;75;21255;-72
2021/12/30 06:53:38;;;;;;;4.80;1.90;;;29.90;54.30;;;;;;1880679;75;21123;-72
2021/12/30 06:56:09;;;;;;;4.37;1.92;;;30.00;54.70;;;;;;1879723;75;21162;-83
2021/12/30 06:58:39;;;;;;;2.52;1.60;;;30.00;54.20;;;;;;1877525;75;21216;-85
2021/12/30 07:01:10;;;;;;;2.75;1.98;;;30.00;54.90;;;;;;1901674;75;21665;-84
2021/12/30 07:03:41;;;;;;;4.25;2.33;;;30.00;55.00;;;;;;1881452;75;21083;-82
2021/12/30 07:06:12;;;;;;;4.50;2.98;;;30.00;55.20;;;;;;1890766;75;21166;-82
2021/12/30 07:08:43;;;;;;;6.03;3.90;;;30.00;54.40;;;;;;1879219;75;21154;-82
2021/12/30 07:11:13;;;;;;;5.50;2.25;;;30.00;54.20;;;;;;1884321;75;21206;-82
2021/12/30 07:13:44;;;;;;;3.50;2.15;;;30.00;54.30;;;;;;1882606;75;21599;-83
2021/12/30 07:16:15;;;;;;;5.45;2.98;;;30.00;54.10;;;;;;1891491;75;21087;-82
2021/12/30 07:18:45;;;;;;;6.37;1.72;;;30.00;54.20;;;;;;1900254;75;21216;-82
2021/12/30 07:21:17;;;;;;;4.40;2.02;;;30.00;54.40;;;;;;1898085;75;21087;-78
2021/12/30 07:23:47;;;;;;;5.70;1.87;;;30.10;54.50;;;;;;1888752;75;21617;-85
2021/12/30 07:26:18;;;;;;;4.17;2.65;;;30.10;54.10;;;;;;1876764;75;21083;-84
2021/12/30 07:28:49;;;;;;;5.45;3.50;;;30.10;54.40;;;;;;1882553;75;21134;-85
2021/12/30 07:31:20;;;;;;;6.20;2.55;;;30.00;54.10;;;;;;1906671;75;21134;-85
2021/12/30 07:33:50;;;;;;;5.83;2.70;;;30.00;54.20;;;;;;1894982;75;21146;-85
2021/12/30 07:36:21;;;;;;;5.00;2.40;;;30.00;54.00;;;;;;1875869;75;21771;-85
2021/12/30 07:38:52;;;;;;;6.78;2.00;;;30.10;54.60;;;;;;1875534;76;21127;-83
2021/12/30 07:41:23;;;;;;;5.55;1.70;;;30.00;54.20;;;;;;1875359;76;21212;-83
2021/12/30 07:43:54;;;;;;;3.12;1.98;;;30.00;54.40;;;;;;1896314;75;21177;-84
2021/12/30 07:46:25;;;;;;;3.17;1.80;;;30.00;54.70;;;;;;1900585;75;21635;-85
2021/12/30 07:48:55;;;;;;;6.42;2.50;;;30.00;54.80;;;;;;1890922;75;21283;-84
2021/12/30 07:51:26;;;;;;;2.25;1.40;;;30.00;54.20;;;;;;1880435;75;21805;-84
2021/12/30 07:53:57;;;;;;;2.85;1.70;;;29.90;54.20;;;;;;1885545;75;21205;-84
2021/12/30 07:56:28;;;;;;;2.80;1.47;;;29.90;54.40;;;;;;1886119;75;21166;-85
2021/12/30 07:58:58;;;;;;;5.55;2.12;;;29.90;54.70;;;;;;1894032;75;22340;-85
2021/12/30 08:01:29;;;;;;;3.42;1.60;;;29.80;54.30;;;;;;1895329;75;21150;-83
2021/12/30 08:04:00;;;;;;;4.50;1.67;;;29.80;54.80;;;;;;1883565;75;21188;-83
2021/12/30 08:06:33;;;;;;;3.05;1.72;;;29.80;54.80;;;;;;1889243;75;22112;-83
2021/12/30 08:09:04;;;;;;;7.53;1.87;;;29.70;55.10;;;;;;1885686;75;21134;-84
2021/12/30 08:11:36;;;;;;;2.52;1.50;;;29.60;55.00;;;;;;1885283;75;21147;-83
2021/12/30 08:14:06;;;;;;;2.27;1.40;;;29.60;54.90;;;;;;1880240;75;21242;-83
2021/12/30 08:16:37;;;;;;;2.27;1.40;;;29.50;55.20;;;;;;1845446;77;21683;-83
2021/12/30 08:19:08;;;;;;;2.85;1.50;;;29.50;55.30;;;;;;1844570;77;21147;-84
2021/12/30 08:21:42;;;;;;;5.80;2.10;;;29.50;55.30;;;;;;1854324;77;21120;-83
2021/12/30 08:24:12;;;;;;;4.40;1.50;;;29.50;55.60;;;;;;1845862;77;21542;-83
2021/12/30 08:26:45;;;;;;;3.15;1.67;;;29.40;55.40;;;;;;1789423;79;21131;-84
2021/12/30 08:29:15;;;;;;;2.72;1.90;;;29.40;55.40;;;;;;1845995;77;21270;-84
2021/12/30 08:31:47;;;;;;;5.33;4.05;;;29.40;55.50;;;;;;1845152;77;21156;-85
2021/12/30 08:34:18;;;;;;;4.95;1.80;;;29.40;56.00;;;;;;1848197;77;21214;-84
2021/12/30 08:36:48;;;;;;;4.45;1.90;;;29.40;56.30;;;;;;1846568;77;21550;-84
2021/12/30 08:39:19;;;;;;;3.42;2.10;;;29.30;55.90;;;;;;1844670;77;21506;-83
2021/12/30 08:41:50;;;;;;;2.40;1.40;;;29.30;56.10;;;;;;1859763;77;21089;-84
2021/12/30 08:44:21;;;;;;;6.67;1.72;;;29.30;55.80;;;;;;1847512;77;21206;-84
2021/12/30 08:46:52;;;;;;;3.92;1.47;;;29.30;55.70;;;;;;1852442;77;21548;-84
2021/12/30 08:49:24;;;;;;;3.22;1.52;;;29.20;55.80;;;;;;1847724;77;21140;-84
2021/12/30 08:51:55;;;;;;;2.70;1.60;;;29.20;55.70;;;;;;1857663;77;21222;-85
2021/12/30 08:54:25;;;;;;;4.95;1.95;;;29.20;55.90;;;;;;1857777;77;21112;-84
2021/12/30 08:56:56;;;;;;;5.90;1.98;;;29.20;56.00;;;;;;1836419;77;21604;-84
2021/12/30 08:59:27;;;;;;;3.22;1.45;;;29.20;56.20;;;;;;1852976;77;21139;-84
2021/12/30 09:01:59;;;;;;;2.75;1.47;;;29.20;55.60;;;;;;1847671;77;21226;-84
2021/12/30 09:04:29;;;;;;;3.00;1.47;;;29.20;55.70;;;;;;1844777;77;21143;-84
2021/12/30 09:07:01;;;;;;;4.53;1.50;;;29.10;55.40;;;;;;1849759;77;21623;-84
2021/12/30 09:09:32;;;;;;;3.12;2.00;;;29.10;56.00;;;;;;1849217;77;21140;-85
2021/12/30 09:12:03;;;;;;;3.98;2.00;;;29.10;56.00;;;;;;1855441;77;21157;-85
2021/12/30 09:14:34;;;;;;;4.78;2.77;;;29.00;56.20;;;;;;1845421;75;21544;-84
2021/12/30 09:17:06;;;;;;;4.30;3.08;;;29.00;56.30;;;;;;1846578;77;21116;-84
2021/12/30 09:19:37;;;;;;;3.67;2.30;;;29.00;56.20;;;;;;1840188;77;21576;-85
2021/12/30 09:22:08;;;;;;;3.35;1.80;;;29.10;56.10;;;;;;1840802;77;21206;-84
2021/12/30 09:24:39;;;;;;;5.03;2.10;;;29.10;56.00;;;;;;1854584;77;21142;-84
2021/12/30 09:27:11;;;;;;;2.45;1.67;;;29.10;56.90;;;;;;1836124;78;21087;-83
2021/12/30 09:29:41;;;;;;;6.30;2.17;;;29.10;56.00;;;;;;1836677;77;21145;-85
2021/12/30 09:32:12;;;;;;;4.70;2.10;;;29.10;56.30;;;;;;1837404;77;21110;-84
2021/12/30 09:34:42;;;;;;;5.87;2.10;;;29.20;56.50;;;;;;1867598;77;21525;-84
2021/12/30 09:37:13;;;;;;;8.80;2.17;;;29.20;56.40;;;;;;1860039;77;21141;-84
2021/12/30 09:39:44;;;;;;;6.25;2.45;;;29.20;56.30;;;;;;1840338;77;21396;-84
2021/12/30 09:42:18;;;;;;;3.77;2.02;;;29.10;56.10;;;;;;1858330;77;21120;-85
2021/12/30 09:44:49;;;;;;;3.45;1.95;;;29.10;56.00;;;;;;1845469;77;21757;-84
2021/12/30 09:47:19;;;;;;;5.53;2.40;;;29.00;55.90;;;;;;1867779;77;21101;-84
2021/12/30 09:49:53;;;;;;;3.80;2.10;;;29.00;56.10;;;;;;1842341;77;21206;-85
2021/12/30 09:52:23;;;;;;;11.57;2.40;;;29.00;56.00;;;;;;1846813;77;21159;-85
2021/12/30 09:54:54;;;;;;;7.53;2.40;;;28.90;56.10;;;;;;1867162;77;21485;-84
2021/12/30 09:57:25;;;;;;;4.17;2.27;;;28.90;56.10;;;;;;1855481;77;21128;-84
2021/12/30 09:59:55;;;;;;;5.62;2.30;;;28.80;56.30;;;;;;1859550;76;21190;-85
2021/12/30 10:02:26;;;;;;;7.37;2.70;;;28.80;56.30;;;;;;1861265;77;21561;-85
2021/12/30 10:05:00;;;;;;;7.30;2.67;;;28.70;56.30;;;;;;1836227;77;21669;-83
2021/12/30 10:07:31;;;;;;;8.83;2.70;;;28.70;56.60;;;;;;1837349;77;21120;-85
2021/12/30 10:10:03;;;;;;;4.20;2.52;;;28.60;56.90;;;;;;1846718;77;21600;-84
2021/12/30 10:12:35;;;;;;;6.40;2.40;;;28.60;56.90;;;;;;1853261;77;21108;-84
2021/12/30 10:15:10;;;;;;;4.15;2.30;;;28.50;56.90;;;;;;1860482;77;21128;-84
2021/12/30 10:17:42;;;;;;;6.58;2.75;;;28.50;57.10;;;;;;1851208;76;21610;-84
2021/12/30 10:20:15;;;;;;;5.85;3.00;;;28.50;57.40;;;;;;1877033;75;21034;-84
2021/12/30 10:22:47;;;;;;;8.23;3.60;;;28.40;57.60;;;;;;1852622;75;21104;-84
2021/12/30 10:25:20;;;;;;;5.17;2.80;;;28.40;57.80;;;;;;1863404;75;21073;-84
2021/12/30 10:27:51;;;;;;;6.95;2.92;;;28.30;57.80;;;;;;1877131;74;21140;-83
2021/12/30 10:30:24;;;;;;;6.28;2.85;;;28.30;57.90;;;;;;1855700;76;21123;-84
2021/12/30 10:32:57;;;;;;;6.35;3.05;;;28.20;58.00;;;;;;1852579;76;21058;-84
2021/12/30 10:35:29;;;;;;;6.62;3.08;;;28.20;58.10;;;;;;1850303;76;21124;-85
2021/12/30 10:38:03;;;;;;;5.65;3.33;;;28.10;58.30;;;;;;1862771;76;21580;-84
2021/12/30 10:40:34;;;;;;;7.90;3.45;;;28.10;58.40;;;;;;1849258;76;21155;-83
2021/12/30 10:43:08;;;;;;;6.40;3.60;;;28.10;58.50;;;;;;1859717;76;21221;-84
2021/12/30 10:45:38;;;;;;;5.15;3.50;;;28.00;58.70;;;;;;1876503;76;21073;-85
2021/12/30 10:48:11;;;;;;;9.68;3.58;;;28.00;58.80;;;;;;1877696;76;21148;-84
2021/12/30 10:50:42;;;;;;;8.78;4.17;;;28.00;59.00;;;;;;1878508;76;21194;-84
2021/12/30 10:53:13;;;;;;;11.88;4.80;;;27.90;59.10;;;;;;1850992;76;21135;-83
2021/12/30 10:55:43;;;;;;;6.05;3.70;;;27.90;59.20;;;;;;1876374;76;21766;-83
2021/12/30 10:58:17;;;;;;;7.80;4.00;;;27.90;59.30;;;;;;1878769;76;21661;-83
2021/12/30 11:00:47;;;;;;;11.28;7.08;;;27.80;60.30;;;;;;1875566;76;21588;-83
2021/12/30 11:03:21;;;;;;;8.50;4.92;;;27.80;59.50;;;;;;1848099;76;21088;-84
2021/12/30 11:05:54;;;;;;;8.23;5.30;;;27.80;59.60;;;;;;1863128;76;21089;-82
2021/12/30 11:08:28;;;;;;;11.30;6.22;;;27.70;59.70;;;;;;1873774;76;21232;-85
2021/12/30 11:10:58;;;;;;;11.85;6.78;;;27.70;59.80;;;;;;1852813;76;21232;-84
2021/12/30 11:13:30;;;;;;;14.30;9.00;;;27.70;60.00;;;;;;1857883;76;21132;-84
2021/12/30 11:16:02;;;;;;;22.17;14.38;;;27.70;60.10;;;;;;1865651;76;21461;-83
2021/12/30 11:18:36;;;;;;;30.25;17.85;;;27.60;60.10;;;;;;1896798;75;21233;-83
2021/12/30 11:21:07;;;;;;;25.57;15.98;;;27.60;60.20;;;;;;1890427;75;21079;-84
2021/12/30 11:23:39;;;;;;;33.88;20.10;;;27.60;60.30;;;;;;1878118;75;21218;-83
2021/12/30 11:26:09;;;;;;;30.55;18.75;;;27.50;60.40;;;;;;1876020;75;21190;-83
2021/12/30 11:28:40;;;;;;;40.05;20.80;;;27.50;60.60;;;;;;1886064;75;21161;-83
2021/12/30 11:31:11;;;;;;;32.88;19.75;;;27.50;60.80;;;;;;1887998;75;21688;-83
2021/12/30 11:33:41;;;;;;;27.70;17.20;;;27.50;60.80;;;;;;1879379;75;22001;-83
2021/12/30 11:36:12;;;;;;;26.23;15.50;;;27.50;61.00;;;;;;1888863;75;21576;-84
2021/12/30 11:38:43;;;;;;;18.55;10.70;;;27.40;61.10;;;;;;1880169;75;21248;-85
2021/12/30 11:41:16;;;;;;;18.48;10.23;;;27.40;61.30;;;;;;1889164;75;21663;-85
2021/12/30 11:43:49;;;;;;;14.20;8.50;;;27.40;61.40;;;;;;1893009;75;21136;-85
2021/12/30 11:46:22;;;;;;;15.78;7.47;;;27.40;61.70;;;;;;1888428;75;21614;-85
2021/12/30 11:48:56;;;;;;;11.48;6.78;;;27.40;61.80;;;;;;1891660;75;21106;-84
2021/12/30 11:51:29;;;;;;;14.93;7.22;;;27.30;61.90;;;;;;1894119;75;21144;-85
2021/12/30 11:54:03;;;;;;;11.03;6.92;;;27.30;62.00;;;;;;1891464;75;21119;-85
2021/12/30 11:56:34;;;;;;;9.03;6.30;;;27.30;62.10;;;;;;1890720;75;21154;-85
2021/12/30 11:59:04;;;;;;;12.10;6.35;;;27.30;62.10;;;;;;1888823;75;21150;-84
2021/12/30 12:01:36;;;;;;;12.53;6.10;;;27.20;62.20;;;;;;1883818;75;21171;-84
2021/12/30 12:04:10;;;;;;;11.90;6.35;;;27.20;62.30;;;;;;1881210;75;21131;-84
2021/12/30 12:06:43;;;;;;;14.78;7.83;;;27.20;62.40;;;;;;1887849;75;21174;-84
2021/12/30 12:09:16;;;;;;;21.20;8.70;;;27.20;62.60;;;;;;1888602;75;21130;-85
2021/12/30 12:11:50;;;;;;;17.02;9.88;;;27.10;62.60;;;;;;1897873;75;21519;-84
2021/12/30 12:14:23;;;;;;;19.77;8.83;;;27.10;62.90;;;;;;1882022;75;21800;-85
2021/12/30 12:16:55;;;;;;;15.15;8.75;;;27.10;62.90;;;;;;1895698;75;21122;-85
2021/12/30 12:19:28;;;;;;;14.03;8.08;;;27.00;63.00;;;;;;1879104;75;21224;-85
2021/12/30 12:22:00;;;;;;;15.15;8.63;;;27.00;63.10;;;;;;1881086;75;21126;-84
2021/12/30 12:24:33;;;;;;;13.45;7.62;;;27.00;63.40;;;;;;1882672;75;21633;-82
2021/12/30 12:27:07;;;;;;;15.43;7.70;;;26.90;63.40;;;;;;1887388;75;21147;-83
2021/12/30 12:29:40;;;;;;;14.98;8.05;;;26.90;63.60;;;;;;1889501;75;21069;-85
2021/12/30 12:32:14;;;;;;;16.48;8.38;;;26.90;63.80;;;;;;1878848;75;21173;-82
2021/12/30 12:35:05;;;;;;;14.23;8.78;;;26.80;63.80;;;;;;1892263;75;21496;-82
2021/12/30 12:37:41;;;;;;;17.40;9.65;;;26.80;64.10;;;;;;1773562;80;21613;-82
2021/12/30 12:40:12;;;;;;;12.43;7.90;;;26.80;64.30;;;;;;1782111;79;21291;-80
2021/12/30 12:42:44;;;;;;;13.95;8.88;;;26.70;64.20;;;;;;1772410;79;21259;-81
2021/12/30 12:45:17;;;;;;;11.40;6.20;;;26.70;64.30;;;;;;1829904;77;21101;-81
2021/12/30 12:47:51;;;;;;;11.10;5.87;;;26.70;64.40;;;;;;1833034;77;21651;-81
2021/12/30 12:50:23;;;;;;;10.70;5.95;;;26.70;64.40;;;;;;1826302;77;21657;-81
2021/12/30 12:52:53;;;;;;;9.75;5.00;;;26.60;64.40;;;;;;1834125;77;21241;-81
2021/12/30 12:55:24;;;;;;;7.20;4.30;;;26.60;64.50;;;;;;1825082;77;21593;-81
2021/12/30 12:57:55;;;;;;;10.50;4.47;;;26.60;64.60;;;;;;1831135;77;21119;-81
2021/12/30 13:00:26;;;;;;;7.00;3.30;;;26.50;64.60;;;;;;1837075;77;21195;-81
2021/12/30 13:02:57;;;;;;;9.13;3.98;;;26.50;64.80;;;;;;1837070;76;21076;-81
2021/12/30 13:05:28;;;;;;;7.87;3.50;;;26.50;64.80;;;;;;1827314;77;21097;-81
2021/12/30 13:07:59;;;;;;;7.70;3.42;;;26.50;64.90;;;;;;1843861;77;21159;-80